Time;durP1;ratioP1;P1;durP2;ratioP2;P2;SDS_P1;SDS_P2;PMS_P1;PMS_P2;Temp;Humidity;BMP_temperature;BMP_pressure;BME280_temperature;BME280_humidity;BME280_pressure;Samples;Min_cycle;Max_cycle;Signal;HPM_P1;HPM_P2
2022/06/03 01:12:28;;;;;;;7.05;6.25;;;;;;;23.97;100.00;100220.13;5129312;27;20536;-87
2022/06/03 01:15:12;;;;;;;9.73;6.60;;;;;;;23.91;100.00;100250.34;5079393;28;20201;-87
2022/06/03 01:17:50;;;;;;;7.85;6.20;;;;;;;23.72;100.00;100244.00;5114241;28;20194;-87
2022/06/03 01:20:22;;;;;;;8.45;6.53;;;;;;;23.56;100.00;100240.16;5108966;28;20715;-87
2022/06/03 01:23:17;;;;;;;15.23;6.53;;;;;;;23.53;100.00;100235.84;5116954;28;20203;-84
2022/06/03 01:26:08;;;;;;;10.10;7.13;;;;;;;23.34;100.00;100241.78;5099495;28;20198;-86
2022/06/03 01:29:17;;;;;;;11.85;6.25;;;;;;;23.29;100.00;100241.09;5092577;28;20190;-87
2022/06/03 01:32:31;;;;;;;8.73;6.70;;;;;;;23.26;100.00;100227.97;5083568;28;20588;-88
2022/06/03 01:35:18;;;;;;;10.95;7.18;;;;;;;22.85;100.00;100205.56;5013333;28;20234;-88
2022/06/03 01:37:52;;;;;;;7.72;6.80;;;;;;;22.78;100.00;100214.63;5079229;28;20198;-85
2022/06/03 01:40:38;;;;;;;7.63;6.85;;;;;;;23.21;100.00;100251.94;5076567;28;20222;-87
2022/06/03 01:43:29;;;;;;;8.77;6.75;;;;;;;23.07;100.00;100260.34;5079374;28;20201;-88
2022/06/03 01:46:30;;;;;;;10.52;6.47;;;;;;;23.08;100.00;100254.13;5086057;28;20194;-89
2022/06/03 01:52:45;;;;;;;9.63;6.72;;;;;;;22.78;100.00;100257.78;5093718;27;21092;-88
2022/06/03 01:55:48;;;;;;;13.93;7.25;;;;;;;22.88;100.00;100253.91;5109035;28;20208;-89
2022/06/03 01:58:50;;;;;;;12.85;7.30;;;;;;;22.92;100.00;100255.56;5109245;28;20208;-90
2022/06/03 02:01:46;;;;;;;12.70;8.63;;;;;;;22.79;100.00;100256.88;5106882;28;20197;-88
2022/06/03 02:04:40;;;;;;;10.07;8.68;;;;;;;22.70;100.00;100249.22;5091852;28;20195;-88
2022/06/03 02:07:45;;;;;;;12.07;8.38;;;;;;;22.78;100.00;100268.34;5108558;28;20200;-88
2022/06/03 02:10:40;;;;;;;14.73;8.45;;;;;;;22.87;100.00;100272.47;5044317;28;20223;-87
2022/06/03 02:13:37;;;;;;;18.45;8.60;;;;;;;22.72;100.00;100274.69;5044895;28;20204;-89
2022/06/03 02:16:42;;;;;;;13.60;9.60;;;;;;;22.79;100.00;100263.94;5042042;28;20192;-86
2022/06/03 02:19:32;;;;;;;11.65;9.70;;;;;;;22.61;100.00;100249.50;5045974;28;20214;-89
2022/06/03 02:22:24;;;;;;;12.48;9.35;;;;;;;22.58;100.00;100245.16;5045968;28;20203;-80
2022/06/03 02:25:23;;;;;;;15.70;9.95;;;;;;;22.67;100.00;100267.84;5012997;28;20568;-87
2022/06/03 02:28:14;;;;;;;17.77;9.18;;;;;;;22.81;100.00;100284.13;4954381;28;20234;-89
2022/06/03 02:31:24;;;;;;;12.98;9.68;;;;;;;22.72;100.00;100271.22;4956485;28;20219;-89
2022/06/03 02:34:29;;;;;;;12.85;8.68;;;;;;;22.88;100.00;100280.38;4914754;29;20275;-89
2022/06/03 02:37:31;;;;;;;13.75;9.70;;;;;;;22.73;100.00;100280.84;4893595;29;20209;-87
2022/06/03 02:40:19;;;;;;;15.30;8.70;;;;;;;22.67;100.00;100270.47;4889652;29;20610;-84
2022/06/03 02:43:27;;;;;;;15.57;8.95;;;;;;;22.67;100.00;100291.63;4880885;29;20209;-88
2022/06/03 02:46:25;;;;;;;10.10;8.13;;;;;;;22.67;100.00;100291.63;4839266;29;20307;-86
2022/06/03 02:49:22;;;;;;;12.48;9.07;;;;;;;22.35;100.00;100247.66;4853821;29;20205;-87
2022/06/03 02:52:20;;;;;;;11.77;8.43;;;;;;;22.80;100.00;100298.25;4848637;29;20239;-87
2022/06/03 02:55:20;;;;;;;16.38;8.65;;;;;;;22.85;100.00;100298.97;4852795;29;20207;-87
2022/06/03 02:58:37;;;;;;;11.52;8.95;;;;;;;22.86;100.00;100311.28;4853299;29;20203;-87
2022/06/03 03:01:23;;;;;;;11.35;8.27;;;;;;;22.88;100.00;100317.38;4745960;30;20263;-83
2022/06/03 03:04:19;;;;;;;12.35;8.15;;;;;;;22.95;100.00;100318.94;4749317;30;20209;-87
2022/06/03 03:07:16;;;;;;;13.70;8.60;;;;;;;22.91;100.00;100317.28;4786129;30;20209;-85
2022/06/03 03:10:15;;;;;;;13.10;8.52;;;;;;;22.86;100.00;100297.22;4731047;30;20225;-86
2022/06/03 03:13:04;;;;;;;15.45;8.93;;;;;;;22.72;100.00;100276.50;4726178;30;20296;-81
2022/06/03 03:16:09;;;;;;;19.48;7.70;;;;;;;23.47;100.00;100331.34;4686454;30;20211;-82
2022/06/03 03:19:09;;;;;;;9.75;7.53;;;;;;;23.90;100.00;100357.19;4725133;30;20211;-81
2022/06/03 03:22:10;;;;;;;10.98;7.40;;;;;;;23.80;100.00;100305.47;4692502;30;20202;-81
2022/06/03 03:25:11;;;;;;;18.13;9.32;;;;;;;23.99;100.00;100309.22;4757130;30;20213;-82
2022/06/03 03:28:06;;;;;;;15.93;8.80;;;;;;;24.39;100.00;100358.13;4705975;30;20632;-79
2022/06/03 03:30:41;;;;;;;14.18;7.80;;;;;;;24.55;100.00;100364.59;4676382;30;20295;-83
2022/06/03 03:33:33;;;;;;;14.48;8.77;;;;;;;24.56;100.00;100353.06;4705095;30;20208;-82
2022/06/03 03:36:40;;;;;;;12.73;9.10;;;;;;;25.10;100.00;100369.53;4705285;30;20226;-82
2022/06/03 03:39:58;;;;;;;13.75;8.68;;;;;;;25.44;100.00;100373.44;4749788;30;20217;-81
2022/06/03 03:43:13;;;;;;;15.82;8.85;;;;;;;25.92;100.00;100365.25;4731697;30;20223;-81
2022/06/03 04:04:02;;;;;;;12.00;7.60;;;;;;;28.52;97.30;100421.84;4662977;30;20570;-83
2022/06/03 04:24:53;;;;;;;11.70;7.97;;;;;;;28.43;89.95;100456.16;4648940;30;21011;-82
2022/06/03 04:27:41;;;;;;;9.48;7.28;;;;;;;28.14;91.99;100432.81;4731959;30;20215;-81
2022/06/03 04:30:52;;;;;;;14.23;7.70;;;;;;;27.39;100.00;100447.16;4783274;30;20208;-82
2022/06/03 04:33:52;;;;;;;13.43;7.55;;;;;;;27.58;100.00;100457.81;4818094;29;20200;-82
2022/06/03 04:36:55;;;;;;;13.85;8.25;;;;;;;27.47;100.00;100463.66;4823783;29;20283;-83
2022/06/03 04:40:21;;;;;;;11.38;7.72;;;;;;;26.78;100.00;100449.16;4858629;29;20202;-82
2022/06/03 04:43:30;;;;;;;9.98;7.57;;;;;;;26.69;100.00;100470.84;4893473;29;20208;-82
2022/06/03 04:46:36;;;;;;;14.15;8.27;;;;;;;26.39;100.00;100467.75;4821386;29;20219;-83
2022/06/03 04:49:39;;;;;;;18.17;8.18;;;;;;;26.10;100.00;100444.19;4820199;29;20211;-81
2022/06/03 04:52:47;;;;;;;13.40;7.20;;;;;;;26.39;100.00;100473.06;4851553;29;20229;-81
2022/06/03 04:56:12;;;;;;;17.13;7.97;;;;;;;26.05;100.00;100476.28;4857746;29;20213;-77
2022/06/03 04:59:23;;;;;;;14.43;8.18;;;;;;;25.67;100.00;100474.34;4799618;29;20212;-78
2022/06/03 05:02:27;;;;;;;9.23;8.13;;;;;;;26.06;100.00;100469.16;4824414;29;20200;-78
2022/06/03 05:05:46;;;;;;;10.27;7.13;;;;;;;26.07;100.00;100465.59;4822261;29;20683;-83
2022/06/03 05:08:53;;;;;;;10.73;7.30;;;;;;;26.48;100.00;100479.78;4766613;30;20220;-82
2022/06/03 05:11:51;;;;;;;6.75;5.85;;;;;;;26.42;100.00;100474.72;4731091;30;20231;-82
2022/06/03 05:14:51;;;;;;;14.73;7.40;;;;;;;26.62;100.00;100495.97;4730416;30;20226;-82
2022/06/03 05:18:07;;;;;;;11.20;7.32;;;;;;;26.38;100.00;100486.44;4743481;30;20218;-84
2022/06/03 05:21:07;;;;;;;9.77;7.78;;;;;;;26.10;100.00;100476.09;4748597;30;20218;-78
2022/06/03 05:23:48;;;;;;;9.15;7.07;;;;;;;26.03;100.00;100453.34;4738650;30;20241;-78
2022/06/03 05:27:05;;;;;;;8.45;6.40;;;;;;;25.92;100.00;100482.16;4740333;30;20210;-87
2022/06/03 05:30:08;;;;;;;11.65;6.75;;;;;;;26.20;100.00;100473.91;4704378;30;20303;-83
2022/06/03 05:33:21;;;;;;;9.82;6.35;;;;;;;25.59;100.00;100455.19;4681676;30;20747;-80
2022/06/03 05:36:35;;;;;;;8.90;5.82;;;;;;;25.62;100.00;100482.50;4687078;30;20213;-80
2022/06/03 05:39:42;;;;;;;11.05;6.53;;;;;;;26.03;100.00;100491.44;4694005;30;20215;-78
2022/06/03 05:42:30;;;;;;;10.80;5.72;;;;;;;25.40;100.00;100486.03;4685995;30;20212;-78
2022/06/03 05:45:40;;;;;;;14.30;5.90;;;;;;;25.32;100.00;100488.13;4714879;30;20227;-78
2022/06/03 05:48:15;;;;;;;8.98;7.05;;;;;;;25.60;100.00;100483.50;4744886;30;20216;-79
2022/06/03 05:50:51;;;;;;;8.38;5.88;;;;;;;25.68;100.00;100496.47;4787236;29;20308;-71
2022/06/03 05:53:34;;;;;;;7.90;5.85;;;;;;;25.70;100.00;100492.81;4820411;29;20222;-76
2022/06/03 05:56:23;;;;;;;7.40;5.07;;;;;;;25.96;100.00;100495.28;4820110;29;20204;-78
2022/06/03 05:59:03;;;;;;;11.90;5.07;;;;;;;25.51;100.00;100438.69;4820303;29;20211;-77
2022/06/03 06:01:42;;;;;;;7.45;4.88;;;;;;;25.86;100.00;100493.06;4914810;29;20214;-77
2022/06/03 06:04:18;;;;;;;5.03;4.22;;;;;;;25.81;100.00;100481.75;4931919;29;20215;-79
2022/06/03 06:07:00;;;;;;;5.80;4.00;;;;;;;26.06;100.00;100501.94;5004010;28;20196;-79
2022/06/03 06:09:44;;;;;;;18.60;4.72;;;;;;;25.86;100.00;100495.72;5009148;28;20215;-80
2022/06/03 06:12:30;;;;;;;7.53;4.13;;;;;;;25.76;100.00;100473.94;5000492;28;20233;-77
2022/06/03 06:15:25;;;;;;;4.60;4.13;;;;;;;25.92;100.00;100491.00;5004017;28;20208;-77
2022/06/03 06:18:02;;;;;;;5.35;4.30;;;;;;;25.32;100.00;100390.75;5008643;28;20275;-80
2022/06/03 06:20:44;;;;;;;8.38;4.57;;;;;;;25.93;100.00;100490.09;4991840;28;20255;-85
2022/06/03 06:23:17;;;;;;;6.13;4.30;;;;;;;26.07;100.00;100493.03;5014418;28;20215;-85
2022/06/03 06:26:07;;;;;;;11.75;4.07;;;;;;;25.67;100.00;100492.06;4989705;28;20209;-85
2022/06/03 06:28:57;;;;;;;5.30;4.40;;;;;;;25.92;100.00;100491.00;4965152;28;20685;-84
2022/06/03 06:31:55;;;;;;;9.00;3.88;;;;;;;26.00;100.00;100499.53;4945538;28;20229;-85
2022/06/03 06:34:36;;;;;;;5.32;3.17;;;;;;;24.55;100.00;100312.41;4946840;28;20209;-86
2022/06/03 06:37:41;;;;;;;4.88;4.00;;;;;;;25.50;100.00;100495.38;4993731;28;20215;-86
2022/06/03 06:40:19;;;;;;;5.03;3.60;;;;;;;25.27;100.00;100482.13;4896584;29;20744;-84
2022/06/03 06:42:57;;;;;;;6.45;3.95;;;;;;;25.11;100.00;100509.25;4921213;29;20208;-85
2022/06/03 06:45:36;;;;;;;7.97;4.30;;;;;;;25.00;100.00;100506.16;4924344;29;20223;-86
2022/06/03 06:48:14;;;;;;;7.85;4.57;;;;;;;25.38;100.00;100502.03;4921092;29;20208;-85
2022/06/03 06:50:52;;;;;;;4.63;4.07;;;;;;;25.35;100.00;100453.50;4915743;29;20251;-85
2022/06/03 06:53:31;;;;;;;7.30;4.43;;;;;;;25.61;100.00;100487.88;4916014;29;20694;-84
2022/06/03 06:56:05;;;;;;;3.85;3.53;;;;;;;25.39;100.00;100466.59;4932161;29;20218;-81
2022/06/03 06:58:43;;;;;;;7.80;4.15;;;;;;;25.73;100.00;100513.94;4915718;29;20203;-77
2022/06/03 07:01:15;;;;;;;5.75;4.03;;;;;;;25.63;100.00;100513.44;4924795;29;20627;-84
2022/06/03 07:03:51;;;;;;;12.18;4.70;;;;;;;25.64;100.00;100485.09;4915380;29;20204;-72
2022/06/03 07:06:27;;;;;;;4.97;3.72;;;;;;;25.91;100.00;100522.94;4929909;29;20213;-85
2022/06/03 07:09:01;;;;;;;6.95;3.80;;;;;;;25.68;100.00;100500.00;4930540;29;20584;-81
2022/06/03 07:11:36;;;;;;;6.03;3.97;;;;;;;25.81;100.00;100500.34;4933756;28;20222;-82
2022/06/03 07:14:07;;;;;;;8.00;4.13;;;;;;;25.94;100.00;100529.00;4935462;29;20206;-83
2022/06/03 07:19:50;;;;;;;5.75;4.47;;;;;;;26.12;100.00;100527.38;5009544;28;20203;-83
2022/06/03 07:22:24;;;;;;;4.82;4.22;;;;;;;26.11;100.00;100515.88;5002833;28;20204;-83
2022/06/03 07:24:59;;;;;;;6.18;3.80;;;;;;;26.23;100.00;100529.63;4999111;28;20202;-80
2022/06/03 07:27:30;;;;;;;7.03;3.55;;;;;;;26.00;100.00;100517.28;4981676;28;20219;-78
2022/06/03 07:30:04;;;;;;;6.65;3.85;;;;;;;26.21;100.00;100496.94;5008252;28;20298;-76
2022/06/03 07:32:41;;;;;;;8.85;3.85;;;;;;;26.52;100.00;100531.91;4992259;28;20233;-79
2022/06/03 07:35:16;;;;;;;8.48;4.03;;;;;;;26.46;100.00;100534.84;5006402;28;20215;-77
2022/06/03 07:37:52;;;;;;;6.57;3.83;;;;;;;26.38;100.00;100531.63;5010540;28;20343;-78
2022/06/03 07:40:24;;;;;;;12.25;3.40;;;;;;;26.38;100.00;100535.16;5019504;28;20580;-79
2022/06/03 07:42:58;;;;;;;3.95;3.65;;;;;;;26.42;100.00;100542.09;5050560;28;20699;-80
2022/06/03 07:45:33;;;;;;;4.28;3.97;;;;;;;26.27;100.00;100524.13;5052050;28;20211;-80
2022/06/03 07:48:02;;;;;;;3.70;3.30;;;;;;;26.27;100.00;100549.84;5052183;28;20206;-80
2022/06/03 07:50:34;;;;;;;5.45;3.38;;;;;;;26.26;100.00;100550.75;5052390;28;20227;-80
2022/06/03 07:53:07;;;;;;;5.43;4.82;;;;;;;26.44;100.00;100542.00;5052419;28;20231;-79
2022/06/03 07:55:35;;;;;;;13.85;4.00;;;;;;;26.49;100.00;100540.03;5033620;28;20686;-79
2022/06/03 07:58:05;;;;;;;7.10;3.40;;;;;;;26.73;100.00;100544.28;5053920;28;20195;-79
2022/06/03 08:00:35;;;;;;;5.80;3.67;;;;;;;26.99;100.00;100548.47;5052676;28;20222;-79
2022/06/03 08:03:06;;;;;;;4.97;3.60;;;;;;;27.05;100.00;100549.06;5052823;28;20208;-80
2022/06/03 08:05:33;;;;;;;7.85;4.40;;;;;;;26.71;100.00;100538.16;5052355;28;20203;-79
2022/06/03 08:10:57;;;;;;;4.75;3.75;;;;;;;26.88;100.00;100548.97;5051656;28;20206;-79
2022/06/03 08:13:25;;;;;;;4.20;3.80;;;;;;;26.96;100.00;100541.50;5070581;28;20230;-78
2022/06/03 08:15:54;;;;;;;12.00;4.25;;;;;;;27.11;100.00;100526.63;5068528;28;20211;-78
2022/06/03 08:18:23;;;;;;;3.80;3.58;;;;;;;27.40;97.03;100549.22;5064070;28;20211;-80
2022/06/03 08:20:54;;;;;;;11.10;3.92;;;;;;;27.35;96.20;100553.91;5060552;28;20210;-79
2022/06/03 08:23:23;;;;;;;4.43;3.60;;;;;;;27.65;96.74;100564.97;5055175;28;20249;-80
2022/06/03 08:25:53;;;;;;;4.20;3.78;;;;;;;27.77;93.69;100562.59;5051586;28;20202;-79
2022/06/03 08:28:22;;;;;;;5.53;3.92;;;;;;;27.81;96.61;100553.50;5051822;28;20206;-79
2022/06/03 08:30:52;;;;;;;10.85;3.63;;;;;;;27.38;95.52;100529.78;5033019;28;20624;-80
2022/06/03 08:33:31;;;;;;;5.85;4.07;;;;;;;27.54;96.65;100558.34;5051981;28;20230;-80
2022/06/03 08:35:58;;;;;;;8.32;4.07;;;;;;;27.34;96.46;100554.84;5052108;28;20203;-80
2022/06/03 08:38:30;;;;;;;4.72;3.38;;;;;;;27.36;93.64;100505.03;5050523;28;20199;-81
2022/06/03 08:41:12;;;;;;;7.88;4.15;;;;;;;27.68;95.52;100556.84;5064526;28;20709;-81
2022/06/03 08:43:55;;;;;;;4.57;4.05;;;;;;;27.84;93.68;100564.00;5065844;28;20206;-82
2022/06/03 08:46:25;;;;;;;7.97;3.63;;;;;;;28.04;96.47;100557.69;5058895;28;20674;-82
2022/06/03 08:49:01;;;;;;;13.30;3.78;;;;;;;27.85;94.43;100556.88;5051614;28;20196;-81
2022/06/03 08:51:36;;;;;;;4.28;3.65;;;;;;;28.02;93.35;100554.25;5060841;28;20219;-81
2022/06/03 08:54:08;;;;;;;4.07;3.65;;;;;;;27.92;94.77;100555.66;5072300;28;20701;-81
2022/06/03 08:56:39;;;;;;;7.15;4.10;;;;;;;28.06;95.24;100558.50;5074548;28;20191;-82
2022/06/03 08:59:13;;;;;;;4.15;3.67;;;;;;;28.13;92.34;100562.63;5054610;28;20196;-81
2022/06/03 09:01:45;;;;;;;7.65;4.10;;;;;;;28.20;91.30;100560.50;5033224;28;20305;-81
2022/06/03 09:04:22;;;;;;;9.07;3.88;;;;;;;27.93;95.31;100558.22;5058078;28;20195;-80
2022/06/03 09:06:58;;;;;;;6.95;4.22;;;;;;;28.10;93.99;100561.91;5054316;28;20203;-80
2022/06/03 09:09:33;;;;;;;4.20;3.80;;;;;;;27.78;95.64;100560.78;5064277;28;20226;-80
2022/06/03 09:12:08;;;;;;;6.45;3.92;;;;;;;28.07;96.46;100562.94;5063509;28;20219;-81
2022/06/03 09:14:35;;;;;;;9.65;4.18;;;;;;;27.94;94.96;100562.63;5065605;28;20550;-81
2022/06/03 09:17:08;;;;;;;9.60;4.18;;;;;;;28.07;94.11;100541.59;5071389;28;20213;-80
2022/06/03 09:19:41;;;;;;;5.03;3.80;;;;;;;27.75;95.57;100553.81;5071282;28;20761;-82
2022/06/03 09:22:13;;;;;;;5.85;3.80;;;;;;;27.98;95.33;100555.34;5057947;28;20206;-83
2022/06/03 09:24:42;;;;;;;7.07;4.20;;;;;;;27.95;93.96;100511.03;5070997;28;20213;-83
2022/06/03 09:27:13;;;;;;;12.15;4.20;;;;;;;28.07;94.01;100531.78;5051692;28;20217;-81
2022/06/03 09:29:46;;;;;;;5.95;3.92;;;;;;;28.07;93.95;100539.75;5064316;28;20210;-82
2022/06/03 09:32:13;;;;;;;7.30;4.20;;;;;;;28.24;93.35;100546.09;5036333;28;20230;-81
2022/06/03 09:34:44;;;;;;;9.73;4.15;;;;;;;28.26;91.67;100550.38;5071167;28;20618;-79
2022/06/03 09:37:13;;;;;;;6.68;4.68;;;;;;;28.43;90.98;100554.91;5070723;28;20280;-80
2022/06/03 09:39:41;;;;;;;5.78;4.53;;;;;;;28.43;91.41;100506.88;5059490;28;20203;-79
2022/06/03 09:42:10;;;;;;;6.88;4.55;;;;;;;28.51;88.49;100542.00;5062889;28;20721;-80
2022/06/03 09:44:39;;;;;;;5.28;4.20;;;;;;;28.49;87.85;100538.56;5070934;28;20194;-80
2022/06/03 09:47:09;;;;;;;8.95;3.85;;;;;;;28.73;86.82;100531.97;5070741;28;20218;-80
2022/06/03 09:49:36;;;;;;;4.97;3.95;;;;;;;28.42;85.53;100534.47;5035685;28;20201;-81
2022/06/03 09:52:12;;;;;;;8.55;4.20;;;;;;;28.42;85.08;100526.47;5070540;28;20238;-84
2022/06/03 09:54:41;;;;;;;7.78;3.50;;;;;;;28.45;84.24;100536.97;5070830;28;20237;-81
2022/06/03 09:57:13;;;;;;;11.32;3.90;;;;;;;28.40;85.33;100529.22;5070893;28;20669;-82
2022/06/03 09:59:44;;;;;;;10.23;4.65;;;;;;;28.48;85.78;100515.47;5070834;28;20209;-82
2022/06/03 10:02:11;;;;;;;7.25;4.15;;;;;;;28.74;84.31;100531.03;5070632;28;20210;-83
2022/06/03 10:04:38;;;;;;;14.43;4.85;;;;;;;28.91;82.48;100523.00;5070495;28;20209;-85
2022/06/03 10:07:07;;;;;;;8.80;4.00;;;;;;;28.94;80.10;100525.50;5070549;28;20662;-84
2022/06/03 10:18:01;;;;;;;5.70;3.75;;;;;;;28.93;79.16;100534.44;5074614;28;20200;-84
2022/06/03 10:20:28;;;;;;;6.75;3.85;;;;;;;28.96;80.09;100517.41;5074539;28;20293;-82
2022/06/03 10:22:57;;;;;;;5.97;4.38;;;;;;;28.93;79.80;100512.25;5074809;28;20194;-84
2022/06/03 10:25:27;;;;;;;8.00;4.15;;;;;;;28.97;79.37;100511.09;5074163;28;20612;-84
2022/06/03 10:27:54;;;;;;;7.57;4.10;;;;;;;28.96;79.12;100514.75;5055874;28;20202;-84
2022/06/03 10:30:27;;;;;;;8.88;4.50;;;;;;;29.17;78.12;100512.69;5074298;28;20200;-84
2022/06/03 10:32:53;;;;;;;8.85;4.40;;;;;;;29.29;77.01;100517.38;5074625;28;20230;-83
2022/06/03 10:35:26;;;;;;;5.63;4.60;;;;;;;29.21;79.48;100490.22;5074546;28;20201;-84
2022/06/03 10:37:57;;;;;;;9.85;3.97;;;;;;;29.54;78.53;100520.41;5073968;28;20199;-84
2022/06/03 10:40:26;;;;;;;5.00;4.18;;;;;;;29.36;78.37;100457.34;5074325;28;20295;-81
2022/06/03 10:42:55;;;;;;;7.72;4.20;;;;;;;29.58;76.33;100515.75;5074196;28;20652;-79
2022/06/03 10:45:27;;;;;;;8.00;4.47;;;;;;;29.33;77.27;100511.78;5022245;28;20612;-81
2022/06/03 10:47:54;;;;;;;8.43;4.10;;;;;;;29.46;77.90;100514.66;5073966;28;20289;-83
2022/06/03 10:50:29;;;;;;;4.88;3.78;;;;;;;29.73;75.37;100510.41;5073595;28;20717;-80
2022/06/03 11:01:44;;;;;;;6.70;3.30;;;;;;;29.23;74.67;100493.66;5073782;28;20206;-85
2022/06/03 11:04:24;;;;;;;9.63;4.10;;;;;;;29.56;77.49;100513.19;5073617;28;20251;-85
2022/06/03 11:06:51;;;;;;;6.53;3.90;;;;;;;29.43;77.54;100507.66;5073457;28;20202;-84
2022/06/03 11:09:22;;;;;;;5.68;4.03;;;;;;;29.69;77.50;100510.66;5073344;28;20199;-86
2022/06/03 11:11:52;;;;;;;7.75;3.85;;;;;;;29.51;76.80;100488.53;5073528;28;20226;-87
2022/06/03 11:14:32;;;;;;;8.93;3.80;;;;;;;29.37;78.60;100480.44;5073655;28;20667;-85
2022/06/03 11:17:03;;;;;;;10.90;4.15;;;;;;;29.86;78.43;100506.13;5073409;28;20260;-80
2022/06/03 11:19:35;;;;;;;5.55;4.55;;;;;;;29.80;78.78;100495.75;5073243;28;20198;-80
2022/06/03 11:22:23;;;;;;;7.85;4.38;;;;;;;29.90;75.64;100506.78;5073288;28;20198;-82
2022/06/03 11:25:03;;;;;;;3.72;3.33;;;;;;;29.62;77.14;100515.50;5073002;28;20190;-82
2022/06/03 11:27:39;;;;;;;9.80;4.90;;;;;;;29.62;78.72;100501.28;5073236;28;20716;-82
2022/06/03 11:30:12;;;;;;;6.78;3.92;;;;;;;29.66;76.59;100514.41;5073114;28;20566;-82
2022/06/03 11:32:41;;;;;;;5.25;3.90;;;;;;;29.61;77.12;100513.78;5072919;28;20636;-81
2022/06/03 11:35:11;;;;;;;6.85;3.97;;;;;;;29.68;76.94;100511.66;5073139;28;20194;-81
2022/06/03 11:37:41;;;;;;;4.50;3.25;;;;;;;29.75;77.43;100505.84;5073070;28;20642;-81
2022/06/03 11:40:19;;;;;;;4.68;3.67;;;;;;;29.79;75.24;100504.72;5072937;28;20736;-82
2022/06/03 11:42:52;;;;;;;5.93;4.05;;;;;;;29.88;75.43;100509.59;5054068;28;20753;-81
2022/06/03 11:45:21;;;;;;;9.20;4.43;;;;;;;30.18;75.21;100511.41;5054657;28;20596;-82
2022/06/03 11:47:55;;;;;;;6.95;3.90;;;;;;;30.13;73.46;100516.16;5073147;28;20291;-81
2022/06/03 11:50:25;;;;;;;9.13;3.80;;;;;;;29.95;75.17;100497.56;5072751;28;20234;-83
2022/06/03 11:52:54;;;;;;;6.30;4.07;;;;;;;30.11;75.63;100510.06;5072357;28;20225;-82
2022/06/03 11:55:27;;;;;;;11.68;3.97;;;;;;;29.86;76.45;100511.47;5072969;28;20248;-82
2022/06/03 11:57:59;;;;;;;13.60;4.32;;;;;;;30.23;76.54;100509.31;5054251;28;20202;-82
2022/06/03 12:00:31;;;;;;;6.32;3.67;;;;;;;30.20;72.23;100504.16;5072494;28;20662;-84
2022/06/03 12:03:07;;;;;;;3.75;3.15;;;;;;;30.10;73.36;100497.63;5072464;28;20195;-83
2022/06/03 12:05:41;;;;;;;7.43;3.58;;;;;;;30.31;71.82;100509.72;5072361;28;20197;-86
2022/06/03 12:08:15;;;;;;;8.88;3.65;;;;;;;30.25;72.01;100510.09;5072613;28;20202;-82
2022/06/03 12:10:50;;;;;;;3.28;2.80;;;;;;;30.26;73.01;100499.28;5072528;28;20202;-81
2022/06/03 12:13:22;;;;;;;5.57;4.13;;;;;;;30.54;70.97;100489.66;5072248;28;20614;-83
2022/06/03 12:16:00;;;;;;;7.95;4.30;;;;;;;30.56;71.12;100501.97;5072281;28;20198;-82
2022/06/03 12:18:58;;;;;;;4.78;2.85;;;;;;;30.50;73.40;100497.00;5072209;28;20251;-80
2022/06/03 12:21:54;;;;;;;5.78;3.78;;;;;;;30.68;71.38;100493.19;5072217;28;20699;-81
2022/06/03 12:24:38;;;;;;;7.75;3.65;;;;;;;30.79;71.14;100480.00;5072132;28;20198;-81
2022/06/03 12:27:14;;;;;;;7.57;3.10;;;;;;;30.59;68.40;100491.06;5072247;28;20694;-81
2022/06/03 12:29:48;;;;;;;4.78;3.45;;;;;;;30.31;70.27;100499.03;5053772;28;20190;-79
2022/06/03 12:32:23;;;;;;;6.75;4.13;;;;;;;30.45;69.39;100491.94;5071945;28;20198;-81
2022/06/03 12:34:50;;;;;;;6.90;4.00;;;;;;;30.97;67.80;100503.00;5071001;28;20229;-81
2022/06/03 12:37:26;;;;;;;7.00;3.70;;;;;;;30.92;66.57;100496.19;5071795;28;20636;-81
2022/06/03 12:40:00;;;;;;;12.40;3.97;;;;;;;31.20;66.04;100492.66;5071761;28;20263;-81
2022/06/03 12:42:40;;;;;;;4.43;3.47;;;;;;;30.60;64.99;100491.94;5071703;28;20201;-80
2022/06/03 12:45:27;;;;;;;5.03;3.58;;;;;;;30.60;66.34;100487.47;5071565;28;20205;-80
2022/06/03 12:47:55;;;;;;;11.32;3.95;;;;;;;30.71;67.84;100487.66;5071840;28;20198;-78
2022/06/03 12:50:39;;;;;;;10.52;4.20;;;;;;;30.85;66.72;100478.78;5071377;28;20758;-78
2022/06/03 12:53:38;;;;;;;5.57;4.07;;;;;;;31.10;65.74;100483.47;4989840;28;20228;-80
2022/06/03 12:56:11;;;;;;;5.47;3.83;;;;;;;31.09;62.95;100489.78;4932233;29;20674;-78
2022/06/03 12:58:45;;;;;;;6.13;3.67;;;;;;;31.16;63.29;100469.69;4885836;29;20211;-79
2022/06/03 13:01:13;;;;;;;4.55;3.17;;;;;;;30.97;62.10;100492.28;4884964;29;20241;-78
2022/06/03 13:03:43;;;;;;;3.95;3.08;;;;;;;30.75;62.29;100457.03;4931652;29;20282;-78
2022/06/03 13:06:09;;;;;;;11.90;3.80;;;;;;;31.02;62.14;100477.72;4932039;29;20267;-80
2022/06/03 13:11:44;;;;;;;8.88;3.42;;;;;;;31.28;58.76;100472.44;4931930;29;20246;-81
2022/06/03 13:14:28;;;;;;;3.80;3.50;;;;;;;31.27;58.10;100477.91;4931747;29;20290;-80
2022/06/03 13:16:55;;;;;;;3.70;3.40;;;;;;;31.26;59.64;100466.31;4931754;29;20370;-80
2022/06/03 13:20:00;;;;;;;4.30;3.50;;;;;;;31.06;59.33;100469.41;4931919;29;20318;-81
2022/06/03 13:22:47;;;;;;;4.32;3.65;;;;;;;30.85;62.45;100458.22;4931610;29;20254;-81
2022/06/03 13:25:35;;;;;;;13.35;3.80;;;;;;;31.06;64.11;100449.78;4931790;29;20293;-83
2022/06/03 13:28:22;;;;;;;8.30;3.53;;;;;;;30.69;60.50;100459.22;4884252;29;20260;-80
2022/06/03 13:31:20;;;;;;;4.30;3.85;;;;;;;30.89;61.26;100459.72;5028592;28;20209;-81
2022/06/03 13:34:15;;;;;;;10.20;3.90;;;;;;;30.93;59.77;100437.13;5070809;28;20726;-82
2022/06/03 13:36:46;;;;;;;10.50;3.53;;;;;;;31.12;57.75;100469.00;5070964;28;20241;-81
2022/06/03 13:39:35;;;;;;;7.43;3.65;;;;;;;31.19;60.15;100467.66;5070895;28;20673;-80
2022/06/03 13:45:13;;;;;;;7.88;4.05;;;;;;;31.54;58.41;100454.69;5070701;28;20201;-82
2022/06/03 13:47:51;;;;;;;4.32;4.00;;;;;;;31.40;61.40;100454.69;5070398;28;20609;-82
2022/06/03 13:50:31;;;;;;;7.53;3.47;;;;;;;31.06;60.59;100436.41;5070739;28;20729;-81
2022/06/03 13:53:01;;;;;;;5.22;3.70;;;;;;;31.04;61.25;100438.31;5070965;28;20225;-82
2022/06/03 13:55:33;;;;;;;3.42;2.92;;;;;;;30.82;61.52;100438.78;5071899;28;20205;-81
2022/06/03 13:58:03;;;;;;;4.80;3.28;;;;;;;31.04;61.81;100444.50;5071076;28;20194;-83
2022/06/03 14:00:34;;;;;;;7.38;4.00;;;;;;;31.20;61.72;100434.56;5071119;28;20206;-83
2022/06/03 14:03:13;;;;;;;5.35;3.50;;;;;;;31.17;62.31;100433.88;5077154;28;20647;-81
2022/06/03 14:05:43;;;;;;;5.88;3.45;;;;;;;31.26;60.50;100430.59;5067142;28;20203;-82
2022/06/03 14:08:19;;;;;;;6.78;3.90;;;;;;;31.52;60.48;100450.38;5074759;28;20209;-81
2022/06/03 14:10:50;;;;;;;5.18;3.63;;;;;;;31.14;58.83;100436.78;5067953;28;20193;-82
2022/06/03 14:13:25;;;;;;;8.88;4.13;;;;;;;31.26;60.08;100457.41;5070200;28;20305;-81
2022/06/03 14:16:01;;;;;;;10.52;7.25;;;;;;;31.22;60.92;100463.91;5071503;28;20592;-81
2022/06/03 14:19:02;;;;;;;6.40;4.40;;;;;;;31.25;60.95;100461.06;5086074;28;20200;-82
2022/06/03 14:21:34;;;;;;;4.05;3.50;;;;;;;31.55;60.48;100445.69;5072005;28;20204;-83
2022/06/03 14:24:06;;;;;;;3.60;3.30;;;;;;;31.74;59.29;100473.00;5070167;28;20292;-81
2022/06/03 14:26:40;;;;;;;5.50;3.97;;;;;;;31.76;59.07;100452.28;5050720;28;20195;-85
2022/06/03 14:29:14;;;;;;;5.53;3.50;;;;;;;32.55;55.65;100476.41;5059149;28;20197;-80
2022/06/03 14:31:47;;;;;;;6.63;3.65;;;;;;;32.29;54.47;100469.28;5072057;28;20681;-78
2022/06/03 14:34:20;;;;;;;6.15;4.20;;;;;;;32.32;54.84;100471.78;5060851;28;20233;-80
2022/06/03 14:36:49;;;;;;;5.80;3.45;;;;;;;32.58;53.71;100475.34;5077959;28;20207;-85
2022/06/03 14:39:20;;;;;;;5.28;3.35;;;;;;;32.33;53.37;100452.88;5071576;28;20202;-83
2022/06/03 14:41:53;;;;;;;6.97;3.50;;;;;;;32.68;53.26;100490.72;5075213;28;20259;-84
2022/06/03 14:44:23;;;;;;;6.85;3.70;;;;;;;32.80;52.55;100481.81;5088136;28;20250;-80
2022/06/03 14:46:56;;;;;;;3.72;3.42;;;;;;;33.36;51.68;100490.34;5058870;28;20209;-80